createdAt,value
2017-10-13T00:01:27.486Z,4.43
2017-10-13T00:03:55.060Z,5.60
2017-10-13T00:06:22.613Z,6.00
2017-10-13T00:08:50.194Z,4.40
2017-10-13T00:11:18.534Z,4.40
2017-10-13T00:13:46.870Z,4.30
2017-10-13T00:16:14.452Z,4.80
2017-10-13T00:18:42.005Z,5.57
2017-10-13T00:21:09.623Z,4.37
2017-10-13T00:23:37.178Z,4.33
2017-10-13T00:26:04.751Z,4.93
2017-10-13T00:28:33.089Z,4.10
2017-10-13T00:31:00.686Z,5.10
2017-10-13T00:33:29.022Z,5.00
2017-10-13T00:35:56.596Z,4.73
2017-10-13T00:38:24.172Z,5.70
2017-10-13T00:40:51.720Z,6.27
2017-10-13T00:43:19.307Z,6.33
2017-10-13T00:45:47.649Z,6.37
2017-10-13T00:48:15.233Z,7.10
2017-10-13T00:50:42.789Z,6.00
2017-10-13T00:53:10.360Z,7.00
2017-10-13T00:55:38.707Z,6.93
2017-10-13T00:58:06.312Z,6.87
2017-10-13T01:00:34.663Z,6.87
2017-10-13T01:03:02.221Z,6.13
2017-10-13T01:05:29.811Z,5.80
2017-10-13T01:07:58.151Z,5.67
2017-10-13T01:10:25.733Z,5.03
2017-10-13T01:12:54.083Z,4.47
2017-10-13T01:15:21.657Z,4.70
2017-10-13T01:17:49.219Z,5.70
2017-10-13T01:20:16.807Z,6.50
2017-10-13T01:22:44.381Z,5.70
2017-10-13T01:25:11.981Z,5.30
2017-10-13T01:27:39.615Z,4.60
2017-10-13T01:30:07.217Z,4.90
2017-10-13T01:32:34.822Z,5.83
2017-10-13T01:35:02.399Z,4.67
2017-10-13T01:37:29.997Z,4.60
2017-10-13T01:39:57.588Z,4.70
2017-10-13T01:42:25.965Z,4.53
2017-10-13T01:44:54.284Z,4.40
2017-10-13T01:47:21.861Z,4.30
2017-10-13T01:49:49.452Z,4.80
2017-10-13T01:52:17.826Z,4.70
2017-10-13T01:54:45.406Z,3.73
2017-10-13T01:57:13.802Z,4.83
2017-10-13T01:59:41.400Z,4.00
2017-10-13T02:02:08.965Z,4.40
2017-10-13T02:04:36.565Z,4.70
2017-10-13T02:07:04.128Z,4.10
2017-10-13T02:09:31.734Z,3.97
2017-10-13T02:11:59.301Z,3.80
2017-10-13T02:14:26.860Z,4.20
2017-10-13T02:16:54.451Z,4.20
2017-10-13T02:19:22.788Z,3.83
2017-10-13T02:21:50.398Z,4.03
2017-10-13T02:24:18.727Z,4.70
2017-10-13T02:26:46.308Z,4.20
2017-10-13T02:29:13.874Z,3.10
2017-10-13T02:31:41.475Z,4.00
2017-10-13T02:34:09.029Z,4.00
2017-10-13T02:36:36.623Z,3.97
2017-10-13T02:39:04.239Z,4.03
2017-10-13T02:41:32.547Z,3.57
2017-10-13T02:44:00.132Z,3.80
2017-10-13T02:46:27.733Z,3.83
2017-10-13T02:48:56.108Z,3.93
2017-10-13T02:51:24.521Z,3.60
2017-10-13T02:53:52.733Z,4.43
2017-10-13T02:56:21.119Z,4.15
2017-10-13T02:58:48.672Z,4.00
2017-10-13T03:01:16.234Z,4.10
2017-10-13T03:03:43.811Z,3.63
2017-10-13T03:06:12.140Z,3.58
2017-10-13T03:08:40.360Z,3.70
2017-10-13T03:11:07.967Z,4.53
2017-10-13T03:13:35.528Z,3.85
2017-10-13T03:16:03.082Z,4.68
2017-10-13T03:18:30.672Z,4.60
2017-10-13T03:20:58.255Z,4.53
2017-10-13T03:23:25.823Z,4.73
2017-10-13T03:25:54.181Z,4.10
2017-10-13T03:28:21.745Z,4.00
2017-10-13T03:30:49.311Z,3.62
2017-10-13T03:33:16.897Z,3.80
2017-10-13T03:35:44.462Z,4.07
2017-10-13T03:38:12.008Z,4.90
2017-10-13T03:40:40.360Z,4.60
2017-10-13T03:43:07.927Z,6.28
2017-10-13T03:45:35.491Z,5.47
2017-10-13T03:48:03.868Z,6.65
2017-10-13T03:50:32.210Z,5.57
2017-10-13T03:52:59.796Z,5.65
2017-10-13T03:55:27.408Z,4.82
2017-10-13T03:57:54.999Z,5.00
2017-10-13T04:00:22.651Z,4.68
2017-10-13T04:02:50.233Z,5.28
2017-10-13T04:05:17.819Z,5.35
2017-10-13T04:07:46.155Z,5.10
2017-10-13T04:10:13.766Z,4.10
2017-10-13T04:12:42.099Z,4.75
2017-10-13T04:15:09.677Z,4.47
2017-10-13T04:17:37.274Z,4.22
2017-10-13T04:20:04.818Z,4.05
2017-10-13T04:22:32.377Z,4.47
2017-10-13T04:25:00.728Z,3.72
2017-10-13T04:27:28.298Z,3.05
2017-10-13T04:29:55.879Z,3.58
2017-10-13T04:32:24.237Z,4.28
2017-10-13T04:34:51.793Z,3.80
2017-10-13T04:37:19.363Z,4.35
2017-10-13T04:39:47.757Z,4.37
2017-10-13T04:42:16.070Z,4.87
2017-10-13T04:44:43.630Z,3.97
2017-10-13T04:47:11.211Z,3.65
2017-10-13T04:49:38.770Z,4.93
2017-10-13T04:52:06.333Z,4.40
2017-10-13T04:54:33.948Z,4.20
2017-10-13T04:57:01.491Z,4.72
2017-10-13T04:59:29.809Z,4.60
2017-10-13T05:01:57.406Z,3.85
2017-10-13T05:04:24.951Z,4.20
2017-10-13T05:06:52.509Z,4.97
2017-10-13T05:09:20.106Z,4.20
2017-10-13T05:11:48.421Z,4.45
2017-10-13T05:14:16.006Z,4.40
2017-10-13T05:16:43.594Z,4.25
2017-10-13T05:19:11.920Z,3.70
2017-10-13T05:21:39.459Z,3.85
2017-10-13T05:24:07.049Z,4.53
2017-10-13T05:26:34.611Z,3.62
2017-10-13T05:29:02.166Z,3.58
2017-10-13T05:31:29.789Z,4.82
2017-10-13T05:33:57.359Z,3.85
2017-10-13T05:36:24.943Z,4.25
2017-10-13T05:38:52.528Z,4.05
2017-10-13T05:41:20.109Z,3.87
2017-10-13T05:43:49.246Z,6.30
2017-10-13T05:46:16.841Z,4.93
2017-10-13T05:48:44.406Z,4.90
2017-10-13T05:51:11.988Z,3.85
2017-10-13T05:53:40.350Z,3.87
2017-10-13T05:56:07.911Z,4.20
2017-10-13T05:58:35.463Z,4.97
2017-10-13T06:01:03.820Z,4.12
2017-10-13T06:03:31.374Z,3.83
2017-10-13T06:05:58.943Z,4.18
2017-10-13T06:08:26.542Z,3.97
2017-10-13T06:10:54.913Z,4.70
2017-10-13T06:13:22.481Z,3.70
2017-10-13T06:15:50.829Z,4.25
2017-10-13T06:18:18.402Z,3.75
2017-10-13T06:20:46.724Z,4.43
2017-10-13T06:23:21.378Z,4.22
2017-10-13T06:25:49.075Z,4.28
2017-10-13T06:28:16.635Z,4.90
2017-10-13T06:30:44.212Z,4.30
2017-10-13T06:33:12.549Z,4.65
2017-10-13T06:35:40.100Z,3.80
2017-10-13T06:38:07.671Z,4.12
2017-10-13T06:40:35.226Z,4.60
2017-10-13T06:43:02.796Z,5.43
2017-10-13T06:45:30.993Z,4.78
2017-10-13T06:47:59.318Z,6.35
2017-10-13T06:50:26.884Z,4.05
2017-10-13T06:52:54.479Z,4.30
2017-10-13T06:55:22.054Z,4.33
2017-10-13T06:57:50.363Z,3.57
2017-10-13T07:00:17.975Z,4.00
2017-10-13T07:02:46.304Z,4.30
2017-10-13T07:05:13.878Z,4.70
2017-10-13T07:07:41.477Z,4.80
2017-10-13T07:10:09.069Z,4.10
2017-10-13T07:12:36.640Z,4.90
2017-10-13T07:15:04.240Z,4.80
2017-10-13T07:17:31.807Z,4.57
2017-10-13T07:19:59.365Z,3.97
2017-10-13T07:22:26.949Z,4.53
2017-10-13T07:24:55.287Z,4.17
2017-10-13T07:27:22.882Z,5.27
2017-10-13T07:29:51.273Z,4.23
2017-10-13T07:32:19.613Z,4.30
2017-10-13T07:34:47.236Z,4.60
2017-10-13T07:37:14.815Z,4.63
2017-10-13T07:39:42.383Z,5.13
2017-10-13T07:42:09.930Z,4.57
2017-10-13T07:44:37.519Z,4.97
2017-10-13T07:47:05.067Z,4.37
2017-10-13T07:49:33.223Z,5.40
2017-10-13T07:52:00.806Z,4.80
2017-10-13T07:54:28.379Z,4.70
2017-10-13T07:56:55.934Z,4.73
2017-10-13T07:59:23.543Z,4.43
2017-10-13T08:01:51.139Z,4.10
2017-10-13T08:04:18.677Z,4.60
2017-10-13T08:06:46.259Z,3.73
2017-10-13T08:09:13.822Z,3.93
2017-10-13T08:11:41.385Z,3.37
2017-10-13T08:14:08.973Z,4.33
2017-10-13T08:16:37.293Z,3.53
2017-10-13T08:19:04.841Z,3.70
2017-10-13T08:21:32.454Z,4.53
2017-10-13T08:24:00.773Z,3.53
2017-10-13T08:26:28.341Z,4.03
2017-10-13T08:28:56.641Z,3.67
2017-10-13T08:31:24.216Z,4.70
2017-10-13T08:33:53.297Z,4.40
2017-10-13T08:36:20.882Z,4.30
2017-10-13T08:38:48.454Z,4.77
2017-10-13T08:41:16.021Z,3.90
2017-10-13T08:43:44.377Z,5.23
2017-10-13T08:46:12.680Z,4.03
2017-10-13T08:48:41.025Z,3.90
2017-10-13T08:51:08.606Z,4.17
2017-10-13T08:53:36.187Z,4.03
2017-10-13T08:56:04.507Z,3.50
2017-10-13T08:58:32.077Z,3.53
2017-10-13T09:00:59.656Z,3.30
2017-10-13T09:03:27.207Z,3.47
2017-10-13T09:05:54.792Z,3.50
2017-10-13T09:08:23.138Z,3.10
2017-10-13T09:10:50.726Z,3.10
2017-10-13T09:13:19.085Z,3.80
2017-10-13T09:15:46.648Z,3.03
2017-10-13T09:18:14.229Z,3.70
2017-10-13T09:20:42.601Z,3.00
2017-10-13T09:23:10.951Z,3.67
2017-10-13T09:25:38.516Z,3.03
2017-10-13T09:28:06.099Z,3.50
2017-10-13T09:30:34.467Z,2.60
2017-10-13T09:33:02.251Z,2.37
2017-10-13T09:35:30.591Z,2.50
2017-10-13T09:37:58.150Z,1.97
2017-10-13T09:40:26.509Z,1.90
2017-10-13T09:42:54.124Z,2.03
2017-10-13T09:45:22.491Z,1.73
2017-10-13T09:47:50.057Z,2.00
2017-10-13T09:50:18.648Z,2.07
2017-10-13T09:52:46.984Z,1.87
2017-10-13T09:55:14.542Z,2.30
2017-10-13T09:57:42.133Z,2.53
2017-10-13T10:00:10.516Z,2.27
2017-10-13T10:02:38.844Z,2.53
2017-10-13T10:05:06.434Z,2.27
2017-10-13T10:07:33.997Z,2.07
2017-10-13T10:10:01.567Z,2.17
2017-10-13T10:12:29.170Z,2.90
2017-10-13T10:14:56.758Z,2.13
2017-10-13T10:17:24.315Z,1.93
2017-10-13T10:19:51.903Z,2.30
2017-10-13T10:22:19.443Z,2.60
2017-10-13T10:24:46.990Z,2.40
2017-10-13T10:27:14.584Z,1.93
2017-10-13T10:29:42.134Z,2.30
2017-10-13T10:32:09.681Z,2.57
2017-10-13T10:34:37.278Z,2.17
2017-10-13T10:37:05.598Z,1.80
2017-10-13T10:39:33.136Z,1.90
2017-10-13T10:42:00.734Z,1.97
2017-10-13T10:44:28.275Z,2.70
2017-10-13T10:46:55.842Z,2.13
2017-10-13T10:49:23.433Z,2.40
2017-10-13T10:51:50.984Z,2.73
2017-10-13T10:54:18.575Z,2.80
2017-10-13T10:56:46.942Z,2.63
2017-10-13T10:59:15.257Z,1.97
2017-10-13T11:01:42.796Z,2.13
2017-10-13T11:04:11.164Z,2.83
2017-10-13T11:06:39.472Z,2.67
2017-10-13T11:09:07.034Z,2.47
2017-10-13T11:11:34.608Z,2.13
2017-10-13T11:14:02.157Z,2.50
2017-10-13T11:16:29.742Z,2.67
2017-10-13T11:18:57.373Z,2.50
2017-10-13T11:21:24.928Z,3.07
2017-10-13T11:23:52.519Z,2.30
2017-10-13T11:26:20.092Z,3.10
2017-10-13T11:28:47.671Z,2.30
2017-10-13T11:31:16.039Z,2.80
2017-10-13T11:33:43.648Z,2.47
2017-10-13T11:36:11.203Z,3.27
2017-10-13T11:38:38.765Z,2.43
2017-10-13T11:41:06.346Z,2.40
2017-10-13T11:46:07.852Z,2.30
2017-10-13T11:48:35.442Z,2.87
2017-10-13T11:51:03.005Z,2.90
2017-10-13T11:53:30.629Z,2.70
2017-10-13T11:55:58.198Z,2.30
2017-10-13T11:58:26.542Z,2.20
2017-10-13T12:00:54.113Z,2.50
2017-10-13T12:03:21.680Z,2.57
2017-10-13T12:05:49.234Z,2.70
2017-10-13T12:08:16.842Z,2.53
2017-10-13T12:10:44.394Z,3.27
2017-10-13T12:13:12.720Z,3.13
2017-10-13T12:15:40.316Z,2.63
2017-10-13T12:18:08.656Z,2.83
2017-10-13T12:20:36.224Z,3.10
2017-10-13T12:23:03.827Z,2.87
2017-10-13T12:25:32.142Z,2.97
2017-10-13T12:27:59.702Z,3.20
2017-10-13T12:30:27.299Z,1.97
2017-10-13T12:32:54.856Z,2.00
2017-10-13T12:35:22.435Z,2.40
2017-10-13T12:37:50.839Z,2.83
2017-10-13T12:40:18.415Z,2.30
2017-10-13T12:42:45.965Z,2.20
2017-10-13T12:45:13.578Z,2.97
2017-10-13T12:47:41.164Z,2.67
2017-10-13T12:50:09.482Z,3.63
2017-10-13T12:52:37.086Z,2.50
2017-10-13T12:55:05.456Z,2.80
2017-10-13T12:57:33.025Z,2.50
2017-10-13T13:00:01.391Z,2.53
2017-10-13T13:02:29.742Z,2.40
2017-10-13T13:04:57.311Z,3.27
2017-10-13T13:07:24.898Z,2.47
2017-10-13T13:09:53.214Z,2.30
2017-10-13T13:12:20.774Z,3.17
2017-10-13T13:14:48.359Z,2.47
2017-10-13T13:17:15.923Z,2.63
2017-10-13T13:19:43.472Z,2.70
2017-10-13T13:22:11.071Z,2.70
2017-10-13T13:24:38.651Z,2.47
2017-10-13T13:27:07.051Z,2.97
2017-10-13T13:29:34.640Z,2.80
2017-10-13T13:32:02.207Z,2.47
2017-10-13T13:34:29.777Z,2.50
2017-10-13T13:36:57.385Z,2.60
2017-10-13T13:39:24.942Z,3.00
2017-10-13T13:41:52.493Z,3.07
2017-10-13T13:44:20.096Z,3.03
2017-10-13T13:46:47.677Z,2.50
2017-10-13T13:49:15.245Z,3.50
2017-10-13T13:51:42.833Z,2.67
2017-10-13T13:54:11.167Z,2.73
2017-10-13T13:56:38.710Z,3.20
2017-10-13T13:59:06.279Z,2.90
2017-10-13T14:01:33.862Z,2.70
2017-10-13T14:04:02.190Z,2.80
2017-10-13T14:06:29.785Z,2.87
2017-10-13T14:08:57.354Z,2.60
2017-10-13T14:11:24.940Z,2.60
2017-10-13T14:13:52.575Z,2.47
2017-10-13T14:16:20.922Z,3.37
2017-10-13T14:18:48.488Z,2.10
2017-10-13T14:21:16.064Z,2.47
2017-10-13T14:23:43.619Z,2.80
2017-10-13T14:26:11.175Z,2.90
2017-10-13T14:28:38.759Z,2.60
2017-10-13T14:31:06.313Z,2.83
2017-10-13T14:33:33.906Z,2.43
2017-10-13T14:36:01.498Z,2.40
2017-10-13T14:38:29.082Z,2.87
2017-10-13T14:40:56.667Z,2.57
2017-10-13T14:43:25.029Z,2.60
2017-10-13T14:45:52.586Z,2.80
2017-10-13T14:48:20.140Z,2.90
2017-10-13T14:50:47.760Z,3.10
2017-10-13T14:53:15.358Z,2.60
2017-10-13T14:55:42.956Z,2.80
2017-10-13T14:58:11.367Z,2.77
2017-10-13T15:00:38.989Z,2.40
2017-10-13T15:03:06.603Z,2.50
2017-10-13T15:05:34.232Z,2.40
2017-10-13T15:08:01.790Z,2.57
2017-10-13T15:10:29.347Z,2.27
2017-10-13T15:12:56.958Z,2.33
2017-10-13T15:15:25.088Z,3.03
2017-10-13T15:17:52.921Z,2.37
2017-10-13T15:20:20.582Z,2.73
2017-10-13T15:22:48.906Z,2.77
2017-10-13T15:25:22.195Z,2.70
2017-10-13T15:27:55.335Z,3.33
2017-10-13T15:30:28.492Z,2.83
2017-10-13T15:33:01.573Z,2.77
2017-10-13T15:35:34.926Z,2.97
2017-10-13T15:38:08.874Z,2.73
2017-10-13T15:40:42.148Z,2.47
2017-10-13T15:43:15.269Z,2.77
2017-10-13T15:45:48.363Z,2.77
2017-10-13T15:48:22.468Z,2.40
2017-10-13T15:50:55.672Z,2.33
2017-10-13T15:53:23.254Z,2.93
2017-10-13T15:55:50.810Z,2.40
2017-10-13T15:58:18.416Z,2.83
2017-10-13T16:00:45.969Z,2.17
2017-10-13T16:03:13.519Z,2.37
2017-10-13T16:05:41.939Z,2.43
2017-10-13T16:08:09.515Z,2.77
2017-10-13T16:10:37.099Z,2.70
2017-10-13T16:13:04.672Z,2.40
2017-10-13T16:15:33.015Z,2.30
2017-10-13T16:18:01.349Z,2.50
2017-10-13T16:20:28.942Z,3.50
2017-10-13T16:22:56.503Z,2.43
2017-10-13T16:25:24.066Z,2.80
2017-10-13T16:27:51.650Z,2.87
2017-10-13T16:30:19.189Z,2.50
2017-10-13T16:32:46.732Z,2.53
2017-10-13T16:35:14.341Z,2.40
2017-10-13T16:37:42.657Z,2.27
2017-10-13T16:40:10.205Z,2.80
2017-10-13T16:42:37.806Z,2.63
2017-10-13T16:45:05.344Z,1.97
2017-10-13T16:47:32.900Z,2.23
2017-10-13T16:50:00.512Z,2.43
2017-10-13T16:52:28.844Z,2.50
2017-10-13T16:54:56.394Z,2.60
2017-10-13T16:57:23.983Z,3.27
2017-10-13T16:59:51.529Z,3.13
2017-10-13T17:02:19.087Z,2.73
2017-10-13T17:04:46.713Z,3.00
2017-10-13T17:07:14.275Z,3.20
2017-10-13T17:09:41.849Z,2.20
2017-10-13T17:12:09.439Z,2.53
2017-10-13T17:14:36.998Z,3.10
2017-10-13T17:17:04.581Z,2.57
2017-10-13T17:19:32.176Z,3.07
2017-10-13T17:21:59.728Z,2.73
2017-10-13T17:24:27.300Z,2.50
2017-10-13T17:26:54.894Z,2.83
2017-10-13T17:29:23.213Z,2.13
2017-10-13T17:31:51.541Z,2.90
2017-10-13T17:34:19.147Z,2.50
2017-10-13T17:36:47.479Z,2.37
2017-10-13T17:39:15.054Z,2.70
2017-10-13T17:41:42.642Z,2.60
2017-10-13T17:44:10.973Z,3.20
2017-10-13T17:46:38.542Z,2.90
2017-10-13T17:49:06.148Z,4.23
2017-10-13T17:51:34.460Z,3.50
2017-10-13T17:54:02.011Z,4.40
2017-10-13T17:56:29.609Z,3.40
2017-10-13T17:58:57.169Z,5.80
2017-10-13T18:01:24.725Z,5.57
2017-10-13T18:03:52.329Z,4.70
2017-10-13T18:06:20.666Z,3.83
2017-10-13T18:08:48.237Z,4.10
2017-10-13T18:11:15.844Z,4.13
2017-10-13T18:13:43.410Z,4.57
2017-10-13T18:16:10.955Z,4.83
2017-10-13T18:18:38.577Z,5.03
2017-10-13T18:21:06.154Z,3.80
2017-10-13T18:23:34.483Z,3.80
2017-10-13T18:26:02.136Z,3.83
2017-10-13T18:28:29.705Z,4.33
2017-10-13T18:30:57.257Z,5.10
2017-10-13T18:33:24.863Z,4.83
2017-10-13T18:35:52.433Z,4.67
2017-10-13T18:38:20.759Z,5.40
2017-10-13T18:40:48.350Z,5.07
2017-10-13T18:43:15.904Z,5.67
2017-10-13T18:45:43.458Z,6.93
2017-10-13T18:48:11.100Z,7.93
2017-10-13T18:50:38.663Z,7.57
2017-10-13T18:53:06.232Z,7.87
2017-10-13T18:55:33.840Z,6.93
2017-10-13T18:58:02.178Z,7.77
2017-10-13T19:00:29.736Z,7.67
2017-10-13T19:02:57.337Z,8.13
2017-10-13T19:05:25.687Z,9.07
2017-10-13T19:07:53.235Z,7.90
2017-10-13T19:10:20.840Z,7.63
2017-10-13T19:12:49.184Z,6.67
2017-10-13T19:15:16.745Z,7.00
2017-10-13T19:17:44.346Z,8.47
2017-10-13T19:20:12.806Z,8.07
2017-10-13T19:22:41.165Z,8.20
2017-10-13T19:25:08.789Z,7.80
2017-10-13T19:27:36.386Z,6.77
2017-10-13T19:30:03.939Z,7.17
2017-10-13T19:32:31.522Z,8.27
2017-10-13T19:34:59.857Z,8.67
2017-10-13T19:37:27.414Z,9.13
2017-10-13T19:39:55.604Z,8.50
2017-10-13T19:42:23.230Z,8.47
2017-10-13T19:44:50.782Z,8.67
2017-10-13T19:47:18.740Z,9.23
2017-10-13T19:49:47.945Z,8.20
2017-10-13T19:52:16.243Z,8.70
2017-10-13T19:54:46.056Z,8.23
2017-10-13T19:57:13.716Z,7.50
2017-10-13T19:59:41.285Z,8.57
2017-10-13T20:02:08.897Z,8.60
2017-10-13T20:04:37.261Z,7.47
2017-10-13T20:07:04.824Z,7.43
2017-10-13T20:09:32.409Z,8.13
2017-10-13T20:11:59.959Z,7.90
2017-10-13T20:14:28.282Z,7.33
2017-10-13T20:16:57.571Z,8.17
2017-10-13T20:19:25.118Z,6.73
2017-10-13T20:21:54.544Z,6.97
2017-10-13T20:24:22.270Z,6.80
2017-10-13T20:26:49.829Z,6.77
2017-10-13T20:29:17.391Z,6.87
2017-10-13T20:31:45.747Z,6.97
2017-10-13T20:34:13.293Z,6.87
2017-10-13T20:36:40.840Z,7.10
2017-10-13T20:39:08.432Z,7.50
2017-10-13T20:41:36.757Z,7.83
2017-10-13T20:44:04.558Z,7.00
2017-10-13T20:46:32.211Z,7.67
2017-10-13T20:49:00.187Z,6.70
2017-10-13T20:51:27.787Z,6.60
2017-10-13T20:53:55.397Z,6.80
2017-10-13T20:56:23.486Z,5.87
2017-10-13T20:58:51.832Z,6.03
2017-10-13T21:01:19.415Z,6.10
2017-10-13T21:03:46.983Z,5.33
2017-10-13T21:06:14.555Z,5.87
2017-10-13T21:08:42.939Z,6.10
2017-10-13T21:11:11.265Z,5.73
2017-10-13T21:13:39.392Z,6.60
2017-10-13T21:16:07.047Z,5.90
2017-10-13T21:18:35.382Z,4.90
2017-10-13T21:21:02.951Z,5.70
2017-10-13T21:23:30.560Z,5.70
2017-10-13T21:25:58.110Z,5.83
2017-10-13T21:28:26.441Z,6.20
2017-10-13T21:30:54.028Z,5.40
2017-10-13T21:33:21.572Z,5.00
2017-10-13T21:35:49.135Z,4.30
2017-10-13T21:38:16.757Z,5.40
2017-10-13T21:40:44.312Z,5.00
2017-10-13T21:43:11.875Z,4.47
2017-10-13T21:45:39.486Z,4.60
2017-10-13T21:48:07.078Z,4.07
2017-10-13T21:50:34.629Z,6.00
2017-10-13T21:53:02.997Z,6.23
2017-10-13T21:55:31.322Z,6.50
2017-10-13T21:57:58.878Z,6.87
2017-10-13T22:00:26.495Z,6.70
2017-10-13T22:02:54.842Z,7.70
2017-10-13T22:05:22.392Z,6.57
2017-10-13T22:07:49.986Z,7.90
2017-10-13T22:10:17.528Z,7.40
2017-10-13T22:12:45.108Z,6.07
2017-10-13T22:15:13.479Z,5.80
2017-10-13T22:17:41.058Z,5.47
2017-10-13T22:20:09.373Z,5.57
2017-10-13T22:22:36.953Z,5.67
2017-10-13T22:25:04.529Z,4.93
2017-10-13T22:27:32.071Z,4.95
2017-10-13T22:29:59.703Z,4.18
2017-10-13T22:32:27.268Z,4.30
2017-10-13T22:34:54.829Z,4.50
2017-10-13T22:37:22.430Z,3.90
2017-10-13T22:39:49.986Z,3.95
2017-10-13T22:42:17.547Z,5.00
2017-10-13T22:44:45.168Z,4.00
2017-10-13T22:47:12.725Z,5.00
2017-10-13T22:49:40.291Z,5.70
2017-10-13T22:52:07.902Z,4.55
2017-10-13T22:54:36.215Z,4.03
2017-10-13T22:57:03.771Z,4.10
2017-10-13T22:59:31.394Z,4.45
2017-10-13T23:01:59.731Z,5.25
2017-10-13T23:04:27.292Z,4.85
2017-10-13T23:06:54.907Z,4.90
2017-10-13T23:09:23.269Z,4.62
2017-10-13T23:11:50.807Z,5.43
2017-10-13T23:14:18.394Z,5.32
2017-10-13T23:16:46.735Z,4.55
2017-10-13T23:19:14.279Z,5.62
2017-10-13T23:21:41.875Z,5.03
2017-10-13T23:24:09.463Z,5.75
2017-10-13T23:26:37.786Z,5.00
2017-10-13T23:29:05.369Z,5.87
2017-10-13T23:31:32.933Z,5.65
2017-10-13T23:34:00.485Z,6.40
2017-10-13T23:36:28.085Z,6.93
2017-10-13T23:38:55.641Z,5.10
2017-10-13T23:41:23.972Z,6.10
2017-10-13T23:43:51.568Z,5.30
2017-10-13T23:46:19.892Z,4.82
2017-10-13T23:48:47.446Z,4.90
2017-10-13T23:51:15.043Z,4.65
2017-10-13T23:53:42.631Z,4.80
2017-10-13T23:56:10.211Z,5.10
2017-10-13T23:58:37.803Z,4.15
